createdAt,value
2023-05-03T00:00:51.693Z,10.50
2023-05-03T00:03:23.195Z,8.50
2023-05-03T00:05:50.598Z,7.30
2023-05-03T00:08:29.462Z,7.90
2023-05-03T00:11:17.109Z,5.00
2023-05-03T00:13:46.693Z,8.10
2023-05-03T00:16:14.019Z,7.30
2023-05-03T00:18:44.458Z,5.60
2023-05-03T00:21:11.490Z,5.50
2023-05-03T00:23:38.494Z,7.80
2023-05-03T00:26:08.362Z,6.60
2023-05-03T00:28:36.235Z,8.00
2023-05-03T00:31:12.092Z,7.60
2023-05-03T00:33:39.527Z,7.10
2023-05-03T00:36:11.731Z,9.10
2023-05-03T00:38:42.809Z,7.90
2023-05-03T00:41:13.989Z,9.90
2023-05-03T00:43:40.815Z,5.70
2023-05-03T00:46:16.944Z,5.90
2023-05-03T00:48:49.263Z,7.40
2023-05-03T00:51:22.004Z,4.90
2023-05-03T00:53:49.439Z,4.60
2023-05-03T00:56:23.039Z,5.40
2023-05-03T00:59:12.480Z,4.80
2023-05-03T01:01:51.334Z,3.40
2023-05-03T01:04:22.285Z,5.10
2023-05-03T01:06:58.919Z,8.00
2023-05-03T01:09:36.461Z,6.80
2023-05-03T01:12:17.087Z,6.90
2023-05-03T01:15:13.736Z,7.00
2023-05-03T01:17:51.200Z,8.00
2023-05-03T01:20:24.996Z,7.30
2023-05-03T01:23:01.998Z,7.20
2023-05-03T01:25:32.791Z,8.30
2023-05-03T01:28:11.259Z,7.00
2023-05-03T01:30:51.660Z,7.50
2023-05-03T01:33:46.681Z,7.90
2023-05-03T01:36:36.276Z,4.80
2023-05-03T01:39:27.156Z,7.60
2023-05-03T01:42:15.953Z,8.10
2023-05-03T01:44:51.313Z,5.30
2023-05-03T01:47:31.471Z,5.60
2023-05-03T01:52:45.218Z,5.00
2023-05-03T01:55:12.667Z,6.00
2023-05-03T01:57:42.449Z,7.30
2023-05-03T02:00:29.799Z,6.20
2023-05-03T02:03:17.048Z,7.40
2023-05-03T02:05:47.036Z,6.30
2023-05-03T02:08:14.086Z,6.90
2023-05-03T02:11:01.433Z,4.40
2023-05-03T02:13:33.882Z,5.80
2023-05-03T02:16:03.732Z,6.50
2023-05-03T02:18:38.729Z,8.90
2023-05-03T02:21:07.017Z,6.20
2023-05-03T02:23:44.192Z,8.30
2023-05-03T02:26:16.700Z,6.00
2023-05-03T02:28:51.410Z,5.70
2023-05-03T02:31:38.719Z,5.40
2023-05-03T02:34:06.294Z,8.20
2023-05-03T02:39:39.191Z,7.20
2023-05-03T02:45:13.996Z,6.70
2023-05-03T02:47:41.040Z,5.00
2023-05-03T02:50:12.412Z,6.30
2023-05-03T02:52:42.066Z,7.30
2023-05-03T02:55:12.592Z,8.10
2023-05-03T02:58:00.129Z,6.70
2023-05-03T03:00:27.651Z,5.20
2023-05-03T03:02:54.868Z,5.60
2023-05-03T03:05:23.016Z,6.20
2023-05-03T03:07:50.028Z,7.80
2023-05-03T03:10:17.481Z,7.00
2023-05-03T03:12:45.372Z,5.80
2023-05-03T03:15:15.659Z,8.10
2023-05-03T03:17:46.102Z,6.10
2023-05-03T03:20:16.798Z,6.40
2023-05-03T03:22:55.774Z,8.40
2023-05-03T03:25:23.056Z,5.60
2023-05-03T03:27:50.272Z,9.80
2023-05-03T03:30:20.837Z,8.20
2023-05-03T03:33:12.614Z,7.30
2023-05-03T03:35:40.248Z,7.30
2023-05-03T03:38:11.850Z,8.50
2023-05-03T03:40:42.682Z,6.60
2023-05-03T03:43:30.128Z,6.90
2023-05-03T03:46:01.397Z,7.70
2023-05-03T03:48:31.104Z,6.40
2023-05-03T03:50:59.488Z,9.50
2023-05-03T03:53:33.048Z,8.90
2023-05-03T03:56:03.276Z,6.90
2023-05-03T03:58:31.448Z,6.60
2023-05-03T04:01:00.872Z,8.80
2023-05-03T04:03:28.889Z,6.00
2023-05-03T04:05:56.373Z,7.50
2023-05-03T04:08:23.751Z,8.50
2023-05-03T04:10:51.681Z,7.20
2023-05-03T04:13:29.408Z,5.60
2023-05-03T04:15:59.003Z,8.90
2023-05-03T04:18:26.460Z,7.70
2023-05-03T04:21:14.023Z,5.40
2023-05-03T04:23:43.275Z,7.80
2023-05-03T04:26:23.492Z,7.20
2023-05-03T04:29:01.472Z,8.30
2023-05-03T04:31:32.967Z,6.10
2023-05-03T04:34:15.109Z,7.30
2023-05-03T04:36:44.101Z,8.50
2023-05-03T04:39:12.954Z,5.20
2023-05-03T04:41:42.310Z,7.10
2023-05-03T04:44:09.778Z,5.80
2023-05-03T04:46:37.027Z,3.90
2023-05-03T04:49:04.294Z,6.60
2023-05-03T04:51:53.316Z,5.90
2023-05-03T04:54:29.991Z,5.40
2023-05-03T04:56:58.059Z,6.10
2023-05-03T04:59:25.319Z,5.90
2023-05-03T05:01:52.545Z,3.90
2023-05-03T05:04:19.816Z,4.10
2023-05-03T05:06:49.189Z,5.10
2023-05-03T05:09:26.480Z,4.60
2023-05-03T05:11:57.164Z,4.10
2023-05-03T05:14:27.198Z,2.80
2023-05-03T05:16:54.766Z,5.10
2023-05-03T05:19:21.923Z,2.90
2023-05-03T05:21:49.234Z,3.50
2023-05-03T05:24:16.609Z,4.80
2023-05-03T05:26:44.574Z,4.20
2023-05-03T05:29:12.866Z,3.70
2023-05-03T05:31:40.126Z,4.10
2023-05-03T05:34:07.655Z,4.90
2023-05-03T05:36:35.545Z,7.10
2023-05-03T05:39:04.012Z,10.00
2023-05-03T05:41:31.489Z,3.10
2023-05-03T05:43:59.508Z,2.30
2023-05-03T05:46:27.861Z,3.20
2023-05-03T05:48:54.968Z,3.50
2023-05-03T05:51:23.398Z,2.20
2023-05-03T05:53:50.632Z,7.90
2023-05-03T05:56:17.931Z,3.10
2023-05-03T05:58:44.902Z,2.60
2023-05-03T06:01:12.058Z,3.60
2023-05-03T06:03:39.164Z,2.90
2023-05-03T06:06:08.580Z,3.60
2023-05-03T06:08:36.568Z,2.40
2023-05-03T06:11:05.108Z,2.50
2023-05-03T06:13:34.766Z,3.00
2023-05-03T06:16:02.796Z,1.90
2023-05-03T06:18:29.715Z,3.40
2023-05-03T06:20:56.658Z,3.60
2023-05-03T06:23:24.166Z,4.30
2023-05-03T06:25:52.334Z,2.60
2023-05-03T06:28:20.515Z,1.60
2023-05-03T06:30:52.764Z,2.10
2023-05-03T06:33:20.060Z,3.40
2023-05-03T06:35:50.308Z,1.40
2023-05-03T06:38:18.325Z,2.20
2023-05-03T06:40:45.758Z,3.60
2023-05-03T06:43:12.618Z,2.50
2023-05-03T06:45:46.090Z,2.00
2023-05-03T06:48:13.136Z,1.20
2023-05-03T06:50:40.174Z,1.40
2023-05-03T06:53:07.178Z,2.00
2023-05-03T06:55:34.109Z,3.10
2023-05-03T06:58:01.583Z,2.20
2023-05-03T07:00:30.664Z,2.60
2023-05-03T07:02:57.805Z,2.80
2023-05-03T07:05:25.292Z,2.50
2023-05-03T07:07:52.860Z,3.60
2023-05-03T07:10:19.902Z,2.30
2023-05-03T07:12:46.854Z,3.00
2023-05-03T07:15:14.976Z,2.70
2023-05-03T07:17:41.828Z,2.40
2023-05-03T07:20:12.967Z,1.70
2023-05-03T07:22:40.567Z,3.50
2023-05-03T07:25:09.006Z,2.20
2023-05-03T07:27:35.968Z,4.80
2023-05-03T07:30:04.220Z,1.50
2023-05-03T07:32:31.350Z,2.30
2023-05-03T07:34:58.294Z,2.30
2023-05-03T07:37:28.212Z,3.80
2023-05-03T07:39:54.965Z,3.20
2023-05-03T07:42:21.864Z,3.20
2023-05-03T07:44:48.807Z,5.70
2023-05-03T07:47:15.745Z,3.40
2023-05-03T07:49:42.875Z,2.30
2023-05-03T07:52:10.540Z,6.30
2023-05-03T07:54:37.687Z,5.20
2023-05-03T07:57:05.049Z,2.60
2023-05-03T07:59:32.426Z,3.40
2023-05-03T08:02:01.462Z,3.50
2023-05-03T08:04:29.293Z,3.10
2023-05-03T08:06:57.168Z,5.90
2023-05-03T08:09:25.119Z,2.90
2023-05-03T08:11:52.048Z,3.90
2023-05-03T08:14:19.354Z,4.10
2023-05-03T08:16:46.702Z,4.50
2023-05-03T08:19:13.604Z,3.40
2023-05-03T08:21:40.876Z,3.60
2023-05-03T08:24:08.455Z,3.90
2023-05-03T08:26:36.181Z,5.70
2023-05-03T08:29:03.971Z,4.10
2023-05-03T08:31:31.596Z,3.90
2023-05-03T08:33:58.559Z,6.50
2023-05-03T08:36:25.813Z,3.70
2023-05-03T08:38:53.265Z,2.60
2023-05-03T08:41:30.220Z,4.80
2023-05-03T08:43:59.486Z,3.00
2023-05-03T08:46:27.120Z,4.10
2023-05-03T08:48:56.019Z,5.40
2023-05-03T08:51:25.561Z,5.70
2023-05-03T08:53:52.844Z,5.00
2023-05-03T08:56:30.768Z,3.30
2023-05-03T08:59:01.467Z,4.40
2023-05-03T09:01:28.318Z,5.30
2023-05-03T09:03:55.739Z,8.30
2023-05-03T09:06:27.282Z,6.60
2023-05-03T09:08:54.787Z,3.80
2023-05-03T09:11:26.134Z,3.60
2023-05-03T09:13:54.092Z,4.60
2023-05-03T09:16:28.959Z,3.30
2023-05-03T09:19:03.407Z,4.20
2023-05-03T09:21:31.597Z,4.70
2023-05-03T09:23:59.100Z,3.20
2023-05-03T09:26:35.317Z,3.10
2023-05-03T09:29:05.306Z,3.30
2023-05-03T09:31:34.222Z,2.90
2023-05-03T09:34:02.004Z,5.40
2023-05-03T09:36:29.092Z,2.10
2023-05-03T09:38:56.755Z,3.00
2023-05-03T09:41:31.930Z,2.30
2023-05-03T09:44:03.102Z,3.50
2023-05-03T09:46:30.408Z,3.10
2023-05-03T09:48:59.866Z,2.20
2023-05-03T09:51:27.611Z,3.50
2023-05-03T09:53:55.273Z,5.90
2023-05-03T09:56:26.938Z,9.80
2023-05-03T09:58:54.662Z,6.70
2023-05-03T10:01:23.543Z,12.40
2023-05-03T10:03:51.977Z,5.10
2023-05-03T10:06:25.185Z,4.40
2023-05-03T10:09:02.011Z,3.30
2023-05-03T10:11:29.963Z,3.40
2023-05-03T10:13:57.552Z,3.50
2023-05-03T10:16:35.343Z,10.80
2023-05-03T10:19:14.864Z,5.00
2023-05-03T10:21:57.265Z,14.80
2023-05-03T10:24:25.307Z,10.60
2023-05-03T10:26:53.236Z,10.30
2023-05-03T10:29:52.324Z,13.20
2023-05-03T10:32:39.683Z,7.20
2023-05-03T10:35:14.351Z,9.50
2023-05-03T10:37:43.868Z,13.20
2023-05-03T10:40:15.171Z,25.00
2023-05-03T10:42:45.362Z,12.40
2023-05-03T10:45:23.340Z,9.20
2023-05-03T10:48:23.148Z,7.70
2023-05-03T10:50:51.738Z,7.80
2023-05-03T10:53:43.504Z,7.10
2023-05-03T10:56:11.975Z,5.80
2023-05-03T10:58:46.292Z,8.10
2023-05-03T11:01:15.987Z,5.50
2023-05-03T11:03:53.548Z,6.70
2023-05-03T11:06:36.028Z,12.10
2023-05-03T11:09:06.167Z,3.30
2023-05-03T11:11:33.327Z,3.40
2023-05-03T11:14:00.332Z,5.00
2023-05-03T11:16:27.998Z,18.10
2023-05-03T11:18:56.419Z,7.50
2023-05-03T11:21:24.185Z,12.20
2023-05-03T11:23:51.429Z,20.30
2023-05-03T11:26:19.292Z,19.50
2023-05-03T11:28:46.750Z,7.10
2023-05-03T11:31:15.440Z,3.90
2023-05-03T11:33:43.336Z,4.10
2023-05-03T11:36:13.842Z,3.20
2023-05-03T11:38:41.594Z,4.60
2023-05-03T11:41:16.380Z,3.00
2023-05-03T11:43:46.543Z,15.80
2023-05-03T11:46:14.816Z,3.40
2023-05-03T11:48:44.281Z,2.00
2023-05-03T11:51:12.566Z,2.50
2023-05-03T11:53:40.597Z,2.90
2023-05-03T11:56:10.340Z,6.80
2023-05-03T11:58:37.467Z,5.40
2023-05-03T12:01:06.536Z,2.20
2023-05-03T12:03:34.414Z,9.60
2023-05-03T12:06:03.590Z,5.40
2023-05-03T12:08:37.973Z,15.10
2023-05-03T12:11:09.492Z,6.90
2023-05-03T12:13:39.859Z,7.60
2023-05-03T12:16:13.826Z,4.00
2023-05-03T12:18:56.038Z,5.90
2023-05-03T12:23:56.207Z,4.30
2023-05-03T12:26:26.084Z,10.70
2023-05-03T12:28:55.941Z,7.00
2023-05-03T12:31:24.549Z,8.00
2023-05-03T12:36:25.588Z,9.50
2023-05-03T12:38:56.406Z,9.50
2023-05-03T12:41:52.679Z,6.20
2023-05-03T12:44:17.192Z,4.50
2023-05-03T12:46:45.447Z,17.00
2023-05-03T12:49:15.136Z,5.70
2023-05-03T12:51:43.450Z,4.20
2023-05-03T12:54:11.765Z,4.00
2023-05-03T12:56:40.649Z,3.50
2023-05-03T12:59:38.999Z,6.60
2023-05-03T13:06:59.360Z,6.80
2023-05-03T13:09:37.944Z,3.30
2023-05-03T13:14:43.115Z,3.80
2023-05-03T13:17:10.442Z,4.40
2023-05-03T13:19:38.029Z,5.00
2023-05-03T13:22:05.186Z,3.30
2023-05-03T13:24:32.061Z,5.10
2023-05-03T13:26:58.952Z,6.80
2023-05-03T13:29:26.924Z,4.80
2023-05-03T13:31:54.179Z,5.90
2023-05-03T13:34:21.670Z,5.10
2023-05-03T13:36:48.946Z,5.40
2023-05-03T13:39:16.574Z,3.70
2023-05-03T13:41:44.055Z,5.70
2023-05-03T13:44:12.631Z,2.90
2023-05-03T13:46:40.653Z,6.10
2023-05-03T13:49:08.800Z,8.30
2023-05-03T13:51:36.325Z,4.60
2023-05-03T13:54:04.449Z,6.60
2023-05-03T13:56:31.934Z,3.80
2023-05-03T13:58:59.618Z,3.50
2023-05-03T14:01:27.535Z,4.20
2023-05-03T14:03:54.797Z,5.20
2023-05-03T14:06:23.215Z,5.00
2023-05-03T14:08:50.999Z,3.30
2023-05-03T14:11:18.841Z,3.50
2023-05-03T14:13:56.447Z,4.20
2023-05-03T14:18:57.303Z,5.30
2023-05-03T14:21:24.705Z,2.60
2023-05-03T14:23:52.965Z,4.00
2023-05-03T14:26:22.309Z,5.80
2023-05-03T14:28:52.291Z,4.70
2023-05-03T14:31:19.247Z,7.80
2023-05-03T14:33:46.463Z,4.40
2023-05-03T14:36:13.442Z,3.20
2023-05-03T14:38:40.371Z,4.40
2023-05-03T14:41:08.066Z,2.10
2023-05-03T14:43:35.098Z,2.90
2023-05-03T14:46:02.438Z,3.90
2023-05-03T14:48:29.951Z,5.80
2023-05-03T14:50:57.643Z,8.60
2023-05-03T14:53:24.624Z,11.70
2023-05-03T14:55:53.984Z,4.50
2023-05-03T14:58:21.020Z,7.20
2023-05-03T15:00:47.999Z,6.70
2023-05-03T15:03:16.880Z,4.50
2023-05-03T15:05:48.526Z,4.40
2023-05-03T15:08:17.308Z,5.20
2023-05-03T15:10:44.798Z,3.40
2023-05-03T15:13:12.317Z,4.20
2023-05-03T15:15:43.883Z,4.40
2023-05-03T15:18:11.440Z,5.80
2023-05-03T15:20:38.993Z,2.70
2023-05-03T15:23:07.674Z,4.50
2023-05-03T15:25:35.690Z,4.20
2023-05-03T15:28:04.435Z,7.10
2023-05-03T15:30:32.292Z,13.50
2023-05-03T15:32:59.448Z,12.30
2023-05-03T15:35:26.385Z,3.30
2023-05-03T15:37:53.465Z,7.20
2023-05-03T15:40:23.733Z,3.90
2023-05-03T15:43:03.391Z,9.80
2023-05-03T15:45:31.220Z,6.50
2023-05-03T15:47:58.867Z,5.10
2023-05-03T15:50:26.110Z,4.00
2023-05-03T15:52:53.222Z,5.40
2023-05-03T15:55:20.993Z,7.30
2023-05-03T15:57:48.258Z,5.00
2023-05-03T16:00:23.076Z,3.80
2023-05-03T16:02:50.420Z,6.60
2023-05-03T16:05:17.783Z,11.20
2023-05-03T16:07:45.078Z,3.90
2023-05-03T16:10:13.408Z,4.00
2023-05-03T16:12:40.970Z,6.50
2023-05-03T16:15:12.305Z,2.50
2023-05-03T16:17:39.709Z,4.20
2023-05-03T16:20:11.751Z,5.40
2023-05-03T16:22:42.003Z,2.60
2023-05-03T16:25:10.740Z,2.40
2023-05-03T16:27:37.749Z,7.10
2023-05-03T16:30:07.188Z,3.20
2023-05-03T16:32:34.646Z,3.90
2023-05-03T16:35:03.369Z,2.50
2023-05-03T16:37:31.860Z,3.80
2023-05-03T16:39:59.016Z,3.60
2023-05-03T16:42:26.012Z,2.60
2023-05-03T16:44:53.240Z,3.00
2023-05-03T16:47:20.448Z,3.90
2023-05-03T16:49:47.292Z,7.60
2023-05-03T16:52:14.417Z,3.80
2023-05-03T16:54:42.975Z,6.10
2023-05-03T16:57:09.809Z,3.10
2023-05-03T16:59:37.145Z,3.40
2023-05-03T17:02:04.080Z,2.10
2023-05-03T17:04:31.268Z,5.80
2023-05-03T17:06:58.594Z,5.70
2023-05-03T17:09:25.646Z,5.90
2023-05-03T17:11:52.903Z,5.20
2023-05-03T17:14:20.360Z,3.30
2023-05-03T17:16:49.012Z,4.30
2023-05-03T17:19:36.844Z,3.10
2023-05-03T17:22:04.032Z,3.40
2023-05-03T17:24:31.411Z,3.90
2023-05-03T17:26:58.679Z,4.50
2023-05-03T17:29:25.701Z,2.20
2023-05-03T17:31:55.790Z,4.00
2023-05-03T17:34:25.144Z,7.50
2023-05-03T17:36:56.285Z,9.70
2023-05-03T17:39:28.650Z,4.60
2023-05-03T17:41:55.505Z,5.20
2023-05-03T17:44:22.994Z,4.40
2023-05-03T17:46:50.228Z,7.00
2023-05-03T17:49:17.130Z,5.20
2023-05-03T17:51:44.165Z,3.60
2023-05-03T17:54:11.510Z,9.90
2023-05-03T17:56:38.428Z,6.90
2023-05-03T17:59:05.370Z,3.50
2023-05-03T18:01:34.910Z,7.60
2023-05-03T18:04:22.831Z,4.60
2023-05-03T18:06:50.795Z,6.00
2023-05-03T18:09:17.882Z,4.90
2023-05-03T18:12:00.335Z,2.90
2023-05-03T18:14:27.348Z,3.40
2023-05-03T18:16:57.557Z,8.40
2023-05-03T18:19:25.098Z,4.00
2023-05-03T18:21:52.208Z,7.40
2023-05-03T18:24:19.171Z,4.50
2023-05-03T18:26:58.857Z,6.20
2023-05-03T18:29:26.020Z,3.30
2023-05-03T18:31:54.895Z,14.90
2023-05-03T18:34:26.860Z,8.90
2023-05-03T18:36:53.869Z,20.30
2023-05-03T18:39:22.780Z,5.50
2023-05-03T18:41:50.152Z,5.10
2023-05-03T18:44:17.295Z,5.50
2023-05-03T18:46:55.946Z,3.70
2023-05-03T18:49:25.371Z,11.50
2023-05-03T18:51:52.342Z,5.00
2023-05-03T18:54:22.158Z,9.00
2023-05-03T18:56:49.098Z,5.80
2023-05-03T18:59:16.129Z,6.40
2023-05-03T19:01:48.959Z,6.20
2023-05-03T19:04:16.178Z,7.20
2023-05-03T19:06:46.660Z,4.80
2023-05-03T19:09:13.793Z,8.50
2023-05-03T19:11:45.069Z,8.50
2023-05-03T19:14:12.174Z,9.60
2023-05-03T19:16:42.574Z,14.50
2023-05-03T19:19:10.761Z,8.60
2023-05-03T19:21:42.386Z,14.90
2023-05-03T19:24:13.043Z,9.10
2023-05-03T19:26:40.106Z,9.70
2023-05-03T19:29:07.966Z,10.50
2023-05-03T19:31:35.190Z,7.10
2023-05-03T19:34:12.840Z,8.20
2023-05-03T19:36:43.067Z,11.50
2023-05-03T19:39:12.183Z,8.00
2023-05-03T19:41:39.777Z,13.10
2023-05-03T19:44:07.450Z,11.50
2023-05-03T19:46:34.899Z,13.30
2023-05-03T19:49:01.924Z,9.10
2023-05-03T19:51:32.923Z,10.70
2023-05-03T19:54:01.756Z,8.30
2023-05-03T19:56:28.794Z,9.70
2023-05-03T19:58:55.934Z,8.50
2023-05-03T20:01:23.450Z,10.10
2023-05-03T20:03:53.468Z,8.60
2023-05-03T20:06:21.163Z,11.50
2023-05-03T20:08:48.407Z,12.50
2023-05-03T20:11:19.547Z,9.60
2023-05-03T20:13:46.750Z,11.00
2023-05-03T20:16:13.823Z,8.30
2023-05-03T20:18:40.975Z,11.60
2023-05-03T20:21:08.135Z,9.00
2023-05-03T20:23:38.047Z,8.60
2023-05-03T20:26:05.139Z,9.70
2023-05-03T20:28:35.127Z,9.70
2023-05-03T20:31:02.061Z,11.00
2023-05-03T20:33:29.033Z,8.40
2023-05-03T20:35:56.291Z,6.10
2023-05-03T20:38:23.481Z,8.40
2023-05-03T20:40:50.312Z,9.20
2023-05-03T20:43:17.631Z,7.70
2023-05-03T20:45:44.630Z,12.40
2023-05-03T20:48:14.733Z,12.50
2023-05-03T20:50:41.857Z,8.90
2023-05-03T20:53:29.588Z,9.00
2023-05-03T20:56:01.652Z,7.00
2023-05-03T20:58:28.957Z,9.90
2023-05-03T21:00:57.908Z,10.80
2023-05-03T21:03:27.530Z,10.80
2023-05-03T21:05:58.104Z,11.00
2023-05-03T21:08:25.563Z,11.10
2023-05-03T21:10:52.932Z,6.30
2023-05-03T21:13:29.143Z,9.40
2023-05-03T21:15:57.636Z,9.50
2023-05-03T21:18:27.212Z,8.80
2023-05-03T21:20:55.495Z,17.00
2023-05-03T21:23:22.622Z,10.40
2023-05-03T21:26:00.646Z,9.10
2023-05-03T21:31:34.148Z,7.20
2023-05-03T21:34:03.234Z,7.60
2023-05-03T21:36:34.594Z,9.10
2023-05-03T21:39:05.167Z,9.10
2023-05-03T21:41:35.695Z,9.20
2023-05-03T21:44:05.931Z,9.20
2023-05-03T21:46:37.693Z,6.60
2023-05-03T21:51:52.958Z,8.80
2023-05-03T21:54:40.228Z,9.10
2023-05-03T21:57:10.259Z,9.60
2023-05-03T21:59:56.362Z,10.60
2023-05-03T22:02:27.563Z,7.60
2023-05-03T22:04:54.899Z,9.70
2023-05-03T22:07:42.268Z,10.50
2023-05-03T22:10:19.447Z,9.80
2023-05-03T22:12:58.230Z,8.60
2023-05-03T22:15:25.574Z,9.50
2023-05-03T22:17:52.752Z,8.50
2023-05-03T22:20:32.263Z,11.60
2023-05-03T22:23:03.654Z,9.10
2023-05-03T22:25:33.114Z,12.70
2023-05-03T22:30:56.594Z,10.60
2023-05-03T22:33:27.287Z,12.40
2023-05-03T22:35:57.598Z,12.80
2023-05-03T22:38:36.060Z,12.70
2023-05-03T22:43:51.720Z,10.10
2023-05-03T22:46:32.703Z,11.90
2023-05-03T22:49:00.002Z,11.90
2023-05-03T22:51:38.640Z,10.40
2023-05-03T22:54:08.744Z,10.10
2023-05-03T22:56:39.505Z,10.80
2023-05-03T22:59:06.471Z,15.30
2023-05-03T23:01:36.187Z,13.50
2023-05-03T23:04:11.374Z,16.30
2023-05-03T23:06:43.881Z,16.40
2023-05-03T23:09:21.499Z,12.90
2023-05-03T23:11:58.957Z,13.10
2023-05-03T23:14:35.121Z,15.30
2023-05-03T23:17:22.936Z,15.10
2023-05-03T23:19:53.703Z,13.50
2023-05-03T23:22:32.255Z,13.70
2023-05-03T23:25:19.998Z,17.10
2023-05-03T23:27:50.493Z,14.30
2023-05-03T23:30:38.047Z,17.00
2023-05-03T23:33:08.648Z,14.90
2023-05-03T23:35:36.209Z,11.70
2023-05-03T23:38:23.695Z,13.20
2023-05-03T23:40:55.038Z,17.30
2023-05-03T23:43:32.937Z,13.60
2023-05-03T23:46:08.491Z,13.80
2023-05-03T23:48:56.280Z,14.70
2023-05-03T23:51:43.647Z,14.90
2023-05-03T23:54:21.705Z,14.00
2023-05-03T23:56:49.109Z,15.20
2023-05-03T23:59:19.382Z,14.50
